Terminal Aerodrome Forecast
Issued by NWS

Home | Current Version | Previous Version | Text Only | Print | Product List | Glossary On
Versions: 1 2 3 4 5 6 7 8 9 10 11 12 13 14
000
FTUS43 KOAX 222320
TAFSNY
TAF
KSNY 222320Z 2300/2324 18020G30KT P6SM SCT150
     FM230100 15015KT P6SM SCT080 BKN150
     FM231000 16011KT 2SM BR SCT010 BKN050
     FM231500 18013G22KT P6SM FEW080 SCT150=

USA.gov is the U.S. government's official web portal to all federal, state and local government web resources and services.